sensor_id;sensor_type;location;lat;lon;timestamp;pressure;altitude;pressure_sealevel;temperature;humidity
36254;BME280;22291;52.250;21.228;2023-04-01T00:01:01;98346.59;;;9.00;100.00
36254;BME280;22291;52.250;21.228;2023-04-01T00:03:30;98339.85;;;9.00;100.00
36254;BME280;22291;52.250;21.228;2023-04-01T00:05:59;98342.34;;;8.99;100.00
36254;BME280;22291;52.250;21.228;2023-04-01T00:08:27;98336.38;;;9.00;100.00
36254;BME280;22291;52.250;21.228;2023-04-01T00:10:54;98335.61;;;8.99;100.00
36254;BME280;22291;52.250;21.228;2023-04-01T00:13:24;98326.71;;;8.98;100.00
36254;BME280;22291;52.250;21.228;2023-04-01T00:15:54;98326.94;;;9.00;100.00
36254;BME280;22291;52.250;21.228;2023-04-01T00:18:22;98329.41;;;8.98;100.00
36254;BME280;22291;52.250;21.228;2023-04-01T00:20:51;98327.86;;;8.97;100.00
36254;BME280;22291;52.250;21.228;2023-04-01T00:23:19;98329.98;;;8.98;100.00
36254;BME280;22291;52.250;21.228;2023-04-01T00:25:47;98324.25;;;9.00;100.00
36254;BME280;22291;52.250;21.228;2023-04-01T00:28:16;98323.02;;;8.97;100.00
36254;BME280;22291;52.250;21.228;2023-04-01T00:30:44;98315.50;;;8.96;100.00
36254;BME280;22291;52.250;21.228;2023-04-01T00:33:11;98307.55;;;8.94;100.00
36254;BME280;22291;52.250;21.228;2023-04-01T00:35:38;98312.02;;;8.96;100.00
36254;BME280;22291;52.250;21.228;2023-04-01T00:38:04;98314.38;;;8.97;100.00
36254;BME280;22291;52.250;21.228;2023-04-01T00:40:35;98305.72;;;8.98;100.00
36254;BME280;22291;52.250;21.228;2023-04-01T00:43:13;98304.02;;;9.00;100.00
36254;BME280;22291;52.250;21.228;2023-04-01T00:45:45;98297.05;;;8.98;100.00
36254;BME280;22291;52.250;21.228;2023-04-01T00:48:18;98295.94;;;9.00;100.00
36254;BME280;22291;52.250;21.228;2023-04-01T00:50:52;98290.54;;;9.00;100.00
36254;BME280;22291;52.250;21.228;2023-04-01T00:53:22;98295.79;;;9.02;100.00
36254;BME280;22291;52.250;21.228;2023-04-01T00:55:54;98295.25;;;9.03;100.00
36254;BME280;22291;52.250;21.228;2023-04-01T00:58:24;98297.71;;;9.02;100.00
36254;BME280;22291;52.250;21.228;2023-04-01T01:00:54;98302.33;;;9.01;100.00
36254;BME280;22291;52.250;21.228;2023-04-01T01:03:21;98302.88;;;9.01;100.00
36254;BME280;22291;52.250;21.228;2023-04-01T01:05:59;98312.11;;;9.00;100.00
36254;BME280;22291;52.250;21.228;2023-04-01T01:08:43;98311.88;;;8.98;100.00
36254;BME280;22291;52.250;21.228;2023-04-01T01:11:10;98306.29;;;8.97;100.00
36254;BME280;22291;52.250;21.228;2023-04-01T01:13:52;98311.45;;;8.96;100.00
36254;BME280;22291;52.250;21.228;2023-04-01T01:16:29;98311.22;;;8.95;100.00
36254;BME280;22291;52.250;21.228;2023-04-01T01:19:29;98310.25;;;8.94;100.00
36254;BME280;22291;52.250;21.228;2023-04-01T01:24:51;98305.05;;;8.95;100.00
36254;BME280;22291;52.250;21.228;2023-04-01T01:27:22;98302.36;;;8.95;100.00
36254;BME280;22291;52.250;21.228;2023-04-01T01:30:01;98310.79;;;8.93;100.00
36254;BME280;22291;52.250;21.228;2023-04-01T01:35:54;98302.50;;;8.92;100.00
36254;BME280;22291;52.250;21.228;2023-04-01T01:38:26;98297.02;;;8.89;100.00
36254;BME280;22291;52.250;21.228;2023-04-01T01:40:55;98301.84;;;8.89;100.00
36254;BME280;22291;52.250;21.228;2023-04-01T01:43:43;98308.58;;;8.89;100.00
36254;BME280;22291;52.250;21.228;2023-04-01T01:46:13;98311.05;;;8.88;100.00
36254;BME280;22291;52.250;21.228;2023-04-01T01:48:47;98311.05;;;8.88;100.00
36254;BME280;22291;52.250;21.228;2023-04-01T01:51:18;98301.41;;;8.87;100.00
36254;BME280;22291;52.250;21.228;2023-04-01T01:53:46;98310.95;;;8.85;100.00
36254;BME280;22291;52.250;21.228;2023-04-01T01:56:13;98307.48;;;8.84;100.00
36254;BME280;22291;52.250;21.228;2023-04-01T01:58:42;98301.66;;;8.82;100.00
36254;BME280;22291;52.250;21.228;2023-04-01T02:01:16;98298.88;;;8.78;100.00
36254;BME280;22291;52.250;21.228;2023-04-01T02:03:45;98299.65;;;8.79;100.00
36254;BME280;22291;52.250;21.228;2023-04-01T02:06:15;98300.22;;;8.78;100.00
36254;BME280;22291;52.250;21.228;2023-04-01T02:08:59;98293.83;;;8.77;100.00
36254;BME280;22291;52.250;21.228;2023-04-01T02:11:38;98298.98;;;8.76;100.00
36254;BME280;22291;52.250;21.228;2023-04-01T02:14:17;98296.40;;;8.73;100.00
36254;BME280;22291;52.250;21.228;2023-04-01T02:17:00;98295.77;;;8.70;100.00
36254;BME280;22291;52.250;21.228;2023-04-01T02:19:27;98290.72;;;8.69;100.00
36254;BME280;22291;52.250;21.228;2023-04-01T02:21:59;98289.71;;;8.67;100.00
36254;BME280;22291;52.250;21.228;2023-04-01T02:24:30;98288.70;;;8.66;100.00
36254;BME280;22291;52.250;21.228;2023-04-01T02:26:58;98284.00;;;8.63;100.00
36254;BME280;22291;52.250;21.228;2023-04-01T02:29:24;98277.06;;;8.62;100.00
36254;BME280;22291;52.250;21.228;2023-04-01T02:31:53;98275.71;;;8.62;100.00
36254;BME280;22291;52.250;21.228;2023-04-01T02:34:22;98273.80;;;8.62;100.00
36254;BME280;22291;52.250;21.228;2023-04-01T02:36:49;98267.62;;;8.62;100.00
36254;BME280;22291;52.250;21.228;2023-04-01T02:39:17;98262.01;;;8.60;100.00
36254;BME280;22291;52.250;21.228;2023-04-01T02:41:46;98272.78;;;8.60;100.00
36254;BME280;22291;52.250;21.228;2023-04-01T02:44:14;98272.02;;;8.60;100.00
36254;BME280;22291;52.250;21.228;2023-04-01T02:46:40;98261.23;;;8.60;100.00
36254;BME280;22291;52.250;21.228;2023-04-01T02:49:08;98264.81;;;8.58;100.00
36254;BME280;22291;52.250;21.228;2023-04-01T02:51:34;98264.38;;;8.56;100.00
36254;BME280;22291;52.250;21.228;2023-04-01T02:54:01;98265.64;;;8.52;100.00
36254;BME280;22291;52.250;21.228;2023-04-01T02:56:28;98265.44;;;8.51;100.00
36254;BME280;22291;52.250;21.228;2023-04-01T02:58:54;98266.55;;;8.50;100.00
36254;BME280;22291;52.250;21.228;2023-04-01T03:01:22;98262.85;;;8.49;100.00
36254;BME280;22291;52.250;21.228;2023-04-01T03:03:50;98275.55;;;8.48;100.00
36254;BME280;22291;52.250;21.228;2023-04-01T03:06:17;98270.16;;;8.48;100.00
36254;BME280;22291;52.250;21.228;2023-04-01T03:08:44;98281.05;;;8.46;100.00
36254;BME280;22291;52.250;21.228;2023-04-01T03:11:12;98278.48;;;8.43;100.00
36254;BME280;22291;52.250;21.228;2023-04-01T03:13:39;98280.15;;;8.41;100.00
36254;BME280;22291;52.250;21.228;2023-04-01T03:16:06;98276.11;;;8.41;100.00
36254;BME280;22291;52.250;21.228;2023-04-01T03:18:32;98279.03;;;8.43;100.00
36254;BME280;22291;52.250;21.228;2023-04-01T03:21:17;98281.38;;;8.44;100.00
36254;BME280;22291;52.250;21.228;2023-04-01T03:23:45;98278.69;;;8.44;100.00
36254;BME280;22291;52.250;21.228;2023-04-01T03:26:12;98281.73;;;8.43;100.00
36254;BME280;22291;52.250;21.228;2023-04-01T03:28:39;98285.30;;;8.40;100.00
36254;BME280;22291;52.250;21.228;2023-04-01T03:31:05;98297.22;;;8.39;100.00
36254;BME280;22291;52.250;21.228;2023-04-01T03:33:32;98290.83;;;8.38;100.00
36254;BME280;22291;52.250;21.228;2023-04-01T03:35:59;98293.86;;;8.36;100.00
36254;BME280;22291;52.250;21.228;2023-04-01T03:38:26;98297.56;;;8.38;100.00
36254;BME280;22291;52.250;21.228;2023-04-01T03:40:52;98300.26;;;8.38;100.00
36254;BME280;22291;52.250;21.228;2023-04-01T03:43:19;98299.45;;;8.37;100.00
36254;BME280;22291;52.250;21.228;2023-04-01T03:45:48;98295.98;;;8.37;100.00
36254;BME280;22291;52.250;21.228;2023-04-01T03:48:16;98312.14;;;8.37;100.00
36254;BME280;22291;52.250;21.228;2023-04-01T03:50:44;98312.72;;;8.36;100.00
36254;BME280;22291;52.250;21.228;2023-04-01T03:53:11;98309.69;;;8.38;100.00
36254;BME280;22291;52.250;21.228;2023-04-01T03:55:38;98310.46;;;8.38;100.00
36254;BME280;22291;52.250;21.228;2023-04-01T03:58:06;98313.59;;;8.40;100.00
36254;BME280;22291;52.250;21.228;2023-04-01T04:00:34;98319.75;;;8.41;100.00
36254;BME280;22291;52.250;21.228;2023-04-01T04:03:01;98323.48;;;8.43;100.00
36254;BME280;22291;52.250;21.228;2023-04-01T04:05:28;98323.14;;;8.44;100.00
36254;BME280;22291;52.250;21.228;2023-04-01T04:07:54;98325.30;;;8.45;100.00
36254;BME280;22291;52.250;21.228;2023-04-01T04:10:21;98327.08;;;8.47;100.00
36254;BME280;22291;52.250;21.228;2023-04-01T04:12:50;98331.13;;;8.47;100.00
36254;BME280;22291;52.250;21.228;2023-04-01T04:15:18;98331.90;;;8.47;100.00
36254;BME280;22291;52.250;21.228;2023-04-01T04:17:45;98328.97;;;8.46;100.00
36254;BME280;22291;52.250;21.228;2023-04-01T04:20:13;98340.21;;;8.48;100.00
36254;BME280;22291;52.250;21.228;2023-04-01T04:22:40;98339.41;;;8.48;100.00
36254;BME280;22291;52.250;21.228;2023-04-01T04:25:08;98332.23;;;8.46;100.00
36254;BME280;22291;52.250;21.228;2023-04-01T04:27:35;98337.28;;;8.47;100.00
36254;BME280;22291;52.250;21.228;2023-04-01T04:30:01;98331.13;;;8.47;100.00
36254;BME280;22291;52.250;21.228;2023-04-01T04:32:30;98336.17;;;8.48;100.00
36254;BME280;22291;52.250;21.228;2023-04-01T04:34:56;98342.34;;;8.49;100.00
36254;BME280;22291;52.250;21.228;2023-04-01T04:37:23;98340.98;;;8.49;100.00
36254;BME280;22291;52.250;21.228;2023-04-01T04:39:52;98343.91;;;8.50;100.00
36254;BME280;22291;52.250;21.228;2023-04-01T04:42:18;98347.16;;;8.49;100.00
36254;BME280;22291;52.250;21.228;2023-04-01T04:44:45;98349.84;;;8.49;100.00
36254;BME280;22291;52.250;21.228;2023-04-01T04:47:11;98351.42;;;8.50;100.00
36254;BME280;22291;52.250;21.228;2023-04-01T04:49:37;98352.44;;;8.52;100.00
36254;BME280;22291;52.250;21.228;2023-04-01T04:52:03;98348.05;;;8.53;100.00
36254;BME280;22291;52.250;21.228;2023-04-01T04:54:30;98347.05;;;8.52;100.00
36254;BME280;22291;52.250;21.228;2023-04-01T04:56:56;98344.69;;;8.50;100.00
36254;BME280;22291;52.250;21.228;2023-04-01T04:59:23;98349.51;;;8.51;100.00
36254;BME280;22291;52.250;21.228;2023-04-01T05:01:49;98352.09;;;8.53;100.00
36254;BME280;22291;52.250;21.228;2023-04-01T05:04:16;98354.22;;;8.54;100.00
36254;BME280;22291;52.250;21.228;2023-04-01T05:06:43;98349.61;;;8.54;100.00
36254;BME280;22291;52.250;21.228;2023-04-01T05:09:10;98357.01;;;8.57;100.00
36254;BME280;22291;52.250;21.228;2023-04-01T05:11:37;98359.50;;;8.56;100.00
36254;BME280;22291;52.250;21.228;2023-04-01T05:14:03;98360.05;;;8.56;100.00
36254;BME280;22291;52.250;21.228;2023-04-01T05:16:29;98358.36;;;8.57;100.00
36254;BME280;22291;52.250;21.228;2023-04-01T05:18:57;98365.87;;;8.58;100.00
36254;BME280;22291;52.250;21.228;2023-04-01T05:21:23;98361.05;;;8.57;100.00
36254;BME280;22291;52.250;21.228;2023-04-01T05:23:50;98365.33;;;8.58;100.00
36254;BME280;22291;52.250;21.228;2023-04-01T05:26:16;98367.88;;;8.61;100.00
36254;BME280;22291;52.250;21.228;2023-04-01T05:28:42;98369.33;;;8.65;100.00
36254;BME280;22291;52.250;21.228;2023-04-01T05:31:09;98365.28;;;8.65;100.00
36254;BME280;22291;52.250;21.228;2023-04-01T05:33:36;98366.73;;;8.68;100.00
36254;BME280;22291;52.250;21.228;2023-04-01T05:36:14;98372.69;;;8.68;100.00
36254;BME280;22291;52.250;21.228;2023-04-01T05:38:42;98357.30;;;8.68;100.00
36254;BME280;22291;52.250;21.228;2023-04-01T05:41:11;98363.70;;;8.70;100.00
36254;BME280;22291;52.250;21.228;2023-04-01T05:43:39;98362.58;;;8.71;100.00
36254;BME280;22291;52.250;21.228;2023-04-01T05:46:07;98365.27;;;8.71;100.00
36254;BME280;22291;52.250;21.228;2023-04-01T05:48:34;98370.32;;;8.72;100.00
36254;BME280;22291;52.250;21.228;2023-04-01T05:51:03;98371.44;;;8.71;100.00
36254;BME280;22291;52.250;21.228;2023-04-01T05:53:30;98373.36;;;8.71;100.00
36254;BME280;22291;52.250;21.228;2023-04-01T05:55:57;98371.44;;;8.71;100.00
36254;BME280;22291;52.250;21.228;2023-04-01T05:58:30;98372.34;;;8.75;100.00
36254;BME280;22291;52.250;21.228;2023-04-01T06:01:02;98373.78;;;8.79;100.00
36254;BME280;22291;52.250;21.228;2023-04-01T06:03:31;98380.52;;;8.79;100.00
36254;BME280;22291;52.250;21.228;2023-04-01T06:05:58;98383.08;;;8.82;100.00
36254;BME280;22291;52.250;21.228;2023-04-01T06:08:25;98381.62;;;8.84;100.00
36254;BME280;22291;52.250;21.228;2023-04-01T06:14:01;98382.63;;;8.86;100.00
36254;BME280;22291;52.250;21.228;2023-04-01T06:22:36;98389.54;;;8.99;100.00
36254;BME280;22291;52.250;21.228;2023-04-01T06:31:03;98394.48;;;9.57;100.00
36254;BME280;22291;52.250;21.228;2023-04-01T06:36:39;98394.83;;;10.13;100.00
36254;BME280;22291;52.250;21.228;2023-04-01T06:39:33;98398.95;;;10.26;100.00
36254;BME280;22291;52.250;21.228;2023-04-01T06:57:03;98385.59;;;10.24;100.00
36254;BME280;22291;52.250;21.228;2023-04-01T06:59:33;98386.88;;;10.20;99.76
36254;BME280;22291;52.250;21.228;2023-04-01T07:04:44;98384.48;;;10.09;99.04
36254;BME280;22291;52.250;21.228;2023-04-01T07:07:27;98385.77;;;10.05;98.87
36254;BME280;22291;52.250;21.228;2023-04-01T07:09:59;98383.48;;;10.07;100.00
36254;BME280;22291;52.250;21.228;2023-04-01T07:12:45;98389.50;;;10.17;100.00
36254;BME280;22291;52.250;21.228;2023-04-01T07:15:30;98387.07;;;10.21;100.00
36254;BME280;22291;52.250;21.228;2023-04-01T07:18:18;98384.30;;;10.34;100.00
36254;BME280;22291;52.250;21.228;2023-04-01T07:20:43;98379.88;;;10.45;100.00
36254;BME280;22291;52.250;21.228;2023-04-01T07:23:26;98378.55;;;10.64;100.00
36254;BME280;22291;52.250;21.228;2023-04-01T07:26:17;98380.97;;;10.70;100.00
36254;BME280;22291;52.250;21.228;2023-04-01T07:28:48;98381.97;;;10.71;100.00
36254;BME280;22291;52.250;21.228;2023-04-01T07:31:34;98387.64;;;10.76;98.86
36254;BME280;22291;52.250;21.228;2023-04-01T07:34:25;98388.87;;;10.78;98.45
36254;BME280;22291;52.250;21.228;2023-04-01T07:59:52;98392.79;;;10.71;95.11
36254;BME280;22291;52.250;21.228;2023-04-01T08:02:48;98388.86;;;10.69;95.03
36254;BME280;22291;52.250;21.228;2023-04-01T08:05:29;98386.80;;;10.62;94.73
36254;BME280;22291;52.250;21.228;2023-04-01T08:10:57;98401.91;;;10.73;94.44
36254;BME280;22291;52.250;21.228;2023-04-01T08:14:21;98397.56;;;10.78;93.46
36254;BME280;22291;52.250;21.228;2023-04-01T08:20:07;98400.40;;;10.85;93.53
36254;BME280;22291;52.250;21.228;2023-04-01T08:22:21;98401.37;;;10.96;94.87
36254;BME280;22291;52.250;21.228;2023-04-01T08:24:51;98406.17;;;11.36;97.79
36254;BME280;22291;52.250;21.228;2023-04-01T08:27:35;98399.50;;;11.53;95.65
36254;BME280;22291;52.250;21.228;2023-04-01T08:30:26;98401.08;;;11.67;94.20
36254;BME280;22291;52.250;21.228;2023-04-01T08:33:10;98405.20;;;11.71;92.47
36254;BME280;22291;52.250;21.228;2023-04-01T08:35:40;98402.80;;;11.66;91.20
36254;BME280;22291;52.250;21.228;2023-04-01T08:38:26;98408.32;;;11.59;90.60
36254;BME280;22291;52.250;21.228;2023-04-01T08:41:05;98411.16;;;11.57;88.40
36254;BME280;22291;52.250;21.228;2023-04-01T08:49:50;98408.70;;;11.71;88.73
36254;BME280;22291;52.250;21.228;2023-04-01T08:52:36;98414.48;;;11.70;87.98
36254;BME280;22291;52.250;21.228;2023-04-01T09:10:11;98424.38;;;11.39;86.81
36254;BME280;22291;52.250;21.228;2023-04-01T09:19:10;98428.38;;;11.35;86.97
36254;BME280;22291;52.250;21.228;2023-04-01T09:24:52;98434.12;;;11.20;85.20
36254;BME280;22291;52.250;21.228;2023-04-01T09:27:39;98431.29;;;11.03;85.25
36254;BME280;22291;52.250;21.228;2023-04-01T09:30:34;98436.47;;;10.93;85.41
36254;BME280;22291;52.250;21.228;2023-04-01T09:42:14;98441.03;;;10.89;86.10
36254;BME280;22291;52.250;21.228;2023-04-01T09:44:36;98440.47;;;10.99;84.75
36254;BME280;22291;52.250;21.228;2023-04-01T10:03:02;98439.53;;;11.20;83.56
36254;BME280;22291;52.250;21.228;2023-04-01T10:06:13;98445.08;;;11.18;84.65
36254;BME280;22291;52.250;21.228;2023-04-01T10:40:35;98466.50;;;10.68;87.36
36254;BME280;22291;52.250;21.228;2023-04-01T10:43:28;98470.34;;;10.57;86.97
36254;BME280;22291;52.250;21.228;2023-04-01T10:49:35;98476.79;;;10.53;87.64
36254;BME280;22291;52.250;21.228;2023-04-01T10:55:36;98473.81;;;10.58;88.64
36254;BME280;22291;52.250;21.228;2023-04-01T11:01:57;98467.70;;;10.61;88.95
36254;BME280;22291;52.250;21.228;2023-04-01T11:23:00;98462.55;;;11.53;89.98
36254;BME280;22291;52.250;21.228;2023-04-01T11:31:47;98466.52;;;12.86;87.86
36254;BME280;22291;52.250;21.228;2023-04-01T11:37:09;98470.61;;;13.20;84.07
36254;BME280;22291;52.250;21.228;2023-04-01T11:42:51;98468.89;;;13.04;80.06
36254;BME280;22291;52.250;21.228;2023-04-01T11:46:00;98462.28;;;12.88;79.84
36254;BME280;22291;52.250;21.228;2023-04-01T11:57:51;98470.48;;;13.43;79.12
36254;BME280;22291;52.250;21.228;2023-04-01T12:00:35;98458.36;;;13.50;77.51
36254;BME280;22291;52.250;21.228;2023-04-01T12:03:16;98465.62;;;13.59;76.38
36254;BME280;22291;52.250;21.228;2023-04-01T12:06:05;98460.36;;;13.77;77.46
36254;BME280;22291;52.250;21.228;2023-04-01T12:25:38;98466.83;;;15.11;73.16
36254;BME280;22291;52.250;21.228;2023-04-01T12:36:51;98479.58;;;14.89;72.57
36254;BME280;22291;52.250;21.228;2023-04-01T12:39:51;98480.05;;;14.67;73.37
36254;BME280;22291;52.250;21.228;2023-04-01T12:45:28;98478.69;;;14.39;74.61
36254;BME280;22291;52.250;21.228;2023-04-01T12:54:18;98483.41;;;14.18;76.23
36254;BME280;22291;52.250;21.228;2023-04-01T13:08:50;98491.07;;;14.33;71.93
36254;BME280;22291;52.250;21.228;2023-04-01T13:14:54;98489.67;;;14.02;72.31
36254;BME280;22291;52.250;21.228;2023-04-01T13:17:29;98501.88;;;13.98;72.21
36254;BME280;22291;52.250;21.228;2023-04-01T13:20:35;98505.31;;;13.92;72.23
36254;BME280;22291;52.250;21.228;2023-04-01T13:25:38;98509.73;;;13.87;72.32
36254;BME280;22291;52.250;21.228;2023-04-01T13:28:28;98510.30;;;13.82;71.72
36254;BME280;22291;52.250;21.228;2023-04-01T13:34:21;98520.52;;;13.76;71.88
36254;BME280;22291;52.250;21.228;2023-04-01T13:51:41;98537.83;;;13.43;70.83
36254;BME280;22291;52.250;21.228;2023-04-01T13:57:23;98538.85;;;13.32;71.48
36254;BME280;22291;52.250;21.228;2023-04-01T14:00:03;98534.86;;;13.25;71.85
36254;BME280;22291;52.250;21.228;2023-04-01T14:14:26;98543.63;;;12.85;72.84
36254;BME280;22291;52.250;21.228;2023-04-01T14:35:01;98549.80;;;12.55;74.48
36254;BME280;22291;52.250;21.228;2023-04-01T14:43:42;98557.87;;;12.15;75.72
36254;BME280;22291;52.250;21.228;2023-04-01T14:50:03;98569.59;;;11.90;77.28
36254;BME280;22291;52.250;21.228;2023-04-01T14:52:32;98570.53;;;11.78;77.98
36254;BME280;22291;52.250;21.228;2023-04-01T14:58:14;98578.05;;;11.65;78.74
36254;BME280;22291;52.250;21.228;2023-04-01T15:03:33;98596.28;;;11.49;79.36
36254;BME280;22291;52.250;21.228;2023-04-01T15:09:06;98590.22;;;11.26;79.93
36254;BME280;22291;52.250;21.228;2023-04-01T15:12:38;98601.45;;;11.18;80.53
36254;BME280;22291;52.250;21.228;2023-04-01T15:18:14;98610.89;;;10.99;80.99
36254;BME280;22291;52.250;21.228;2023-04-01T15:29:56;98626.86;;;10.46;82.86
36254;BME280;22291;52.250;21.228;2023-04-01T15:32:29;98635.22;;;10.41;83.22
36254;BME280;22291;52.250;21.228;2023-04-01T15:37:53;98642.72;;;10.26;84.02
36254;BME280;22291;52.250;21.228;2023-04-01T15:40:46;98649.73;;;10.21;84.46
36254;BME280;22291;52.250;21.228;2023-04-01T15:43:45;98656.39;;;10.17;84.98
36254;BME280;22291;52.250;21.228;2023-04-01T15:49:39;98658.41;;;9.98;85.36
36254;BME280;22291;52.250;21.228;2023-04-01T16:12:02;98708.03;;;9.59;86.50
36254;BME280;22291;52.250;21.228;2023-04-01T16:20:17;98717.03;;;9.45;86.46
36254;BME280;22291;52.250;21.228;2023-04-01T16:23:10;98723.81;;;9.39;86.23
36254;BME280;22291;52.250;21.228;2023-04-01T16:25:44;98726.30;;;9.31;86.16
36254;BME280;22291;52.250;21.228;2023-04-01T16:28:25;98724.59;;;9.27;86.30
36254;BME280;22291;52.250;21.228;2023-04-01T16:31:29;98725.71;;;9.26;86.40
36254;BME280;22291;52.250;21.228;2023-04-01T16:34:25;98727.29;;;9.21;86.22
36254;BME280;22291;52.250;21.228;2023-04-01T16:37:17;98737.77;;;9.16;86.43
36254;BME280;22291;52.250;21.228;2023-04-01T16:42:53;98745.61;;;9.09;86.39
36254;BME280;22291;52.250;21.228;2023-04-01T16:45:30;98743.58;;;9.06;86.44
36254;BME280;22291;52.250;21.228;2023-04-01T16:48:01;98753.38;;;9.04;86.75
36254;BME280;22291;52.250;21.228;2023-04-01T16:50:30;98756.61;;;9.04;87.00
36254;BME280;22291;52.250;21.228;2023-04-01T16:56:02;98773.02;;;8.98;87.42
36254;BME280;22291;52.250;21.228;2023-04-01T16:58:36;98778.53;;;8.96;87.38
36254;BME280;22291;52.250;21.228;2023-04-01T17:01:57;98787.73;;;8.95;87.23
36254;BME280;22291;52.250;21.228;2023-04-01T17:04:07;98791.00;;;8.94;87.55
36254;BME280;22291;52.250;21.228;2023-04-01T17:15:27;98807.37;;;8.83;87.30
36254;BME280;22291;52.250;21.228;2023-04-01T17:20:50;98816.00;;;8.76;87.35
36254;BME280;22291;52.250;21.228;2023-04-01T17:23:34;98818.81;;;8.74;87.28
36254;BME280;22291;52.250;21.228;2023-04-01T17:32:35;98833.84;;;8.69;87.70
36254;BME280;22291;52.250;21.228;2023-04-01T17:38:09;98832.59;;;8.66;87.83
36254;BME280;22291;52.250;21.228;2023-04-01T17:40:59;98845.85;;;8.65;88.08
36254;BME280;22291;52.250;21.228;2023-04-01T17:43:53;98845.85;;;8.65;88.32
36254;BME280;22291;52.250;21.228;2023-04-01T18:01:56;98876.57;;;8.58;88.68
36254;BME280;22291;52.250;21.228;2023-04-01T18:04:37;98887.92;;;8.57;88.88
36254;BME280;22291;52.250;21.228;2023-04-01T18:10:26;98889.84;;;8.57;89.03
36254;BME280;22291;52.250;21.228;2023-04-01T18:16:34;98897.92;;;8.57;89.14
36254;BME280;22291;52.250;21.228;2023-04-01T18:21:56;98895.42;;;8.52;89.22
36254;BME280;22291;52.250;21.228;2023-04-01T18:24:33;98904.29;;;8.52;89.07
36254;BME280;22291;52.250;21.228;2023-04-01T18:30:37;98918.22;;;8.54;89.24
36254;BME280;22291;52.250;21.228;2023-04-01T18:35:50;98919.05;;;8.61;89.52
36254;BME280;22291;52.250;21.228;2023-04-01T18:38:36;98920.39;;;8.61;89.24
36254;BME280;22291;52.250;21.228;2023-04-01T18:50:19;98934.83;;;8.50;88.99
36254;BME280;22291;52.250;21.228;2023-04-01T18:52:43;98942.45;;;8.48;88.88
36254;BME280;22291;52.250;21.228;2023-04-01T18:58:19;98943.72;;;8.42;88.96
36254;BME280;22291;52.250;21.228;2023-04-01T19:21:37;98979.31;;;8.27;88.88
36254;BME280;22291;52.250;21.228;2023-04-01T19:24:48;98981.88;;;8.23;88.81
36254;BME280;22291;52.250;21.228;2023-04-01T19:27:48;98985.00;;;8.19;88.82
36254;BME280;22291;52.250;21.228;2023-04-01T19:36:00;98994.76;;;8.09;88.79
36254;BME280;22291;52.250;21.228;2023-04-01T19:38:39;99002.06;;;8.08;88.92
36254;BME280;22291;52.250;21.228;2023-04-01T19:44:31;99018.08;;;8.04;88.85
36254;BME280;22291;52.250;21.228;2023-04-01T21:22:58;99123.63;;;7.72;88.37
36254;BME280;22291;52.250;21.228;2023-04-01T21:25:32;99126.48;;;7.66;87.98
36254;BME280;22291;52.250;21.228;2023-04-01T21:28:17;99132.75;;;7.64;87.83
36254;BME280;22291;52.250;21.228;2023-04-01T21:37:11;99139.70;;;7.57;87.67
36254;BME280;22291;52.250;21.228;2023-04-01T21:42:49;99146.84;;;7.53;87.75
36254;BME280;22291;52.250;21.228;2023-04-01T21:52:22;99148.16;;;7.44;87.56
36254;BME280;22291;52.250;21.228;2023-04-01T22:12:47;99177.58;;;7.32;87.20
36254;BME280;22291;52.250;21.228;2023-04-01T22:15:46;99178.45;;;7.29;87.24
36254;BME280;22291;52.250;21.228;2023-04-01T22:18:34;99184.92;;;7.28;87.30
36254;BME280;22291;52.250;21.228;2023-04-01T22:24:30;99190.61;;;7.27;87.45
36254;BME280;22291;52.250;21.228;2023-04-01T22:43:51;99212.32;;;7.02;86.68
36254;BME280;22291;52.250;21.228;2023-04-01T22:47:17;99219.66;;;6.99;86.77
36254;BME280;22291;52.250;21.228;2023-04-01T22:51:53;99216.86;;;6.92;86.74
36254;BME280;22291;52.250;21.228;2023-04-01T22:54:32;99216.37;;;6.90;86.85
36254;BME280;22291;52.250;21.228;2023-04-01T23:03:28;99220.55;;;6.85;87.11
36254;BME280;22291;52.250;21.228;2023-04-01T23:06:05;99224.33;;;6.84;87.02
36254;BME280;22291;52.250;21.228;2023-04-01T23:25:51;99246.05;;;6.77;87.20
36254;BME280;22291;52.250;21.228;2023-04-01T23:28:17;99250.08;;;6.77;87.40
36254;BME280;22291;52.250;21.228;2023-04-01T23:31:01;99248.99;;;6.78;87.56
36254;BME280;22291;52.250;21.228;2023-04-01T23:33:30;99255.71;;;6.78;87.47
36254;BME280;22291;52.250;21.228;2023-04-01T23:38:39;99255.03;;;6.72;87.30
36254;BME280;22291;52.250;21.228;2023-04-01T23:41:25;99259.63;;;6.71;87.41
36254;BME280;22291;52.250;21.228;2023-04-01T23:44:05;99262.56;;;6.72;87.56
36254;BME280;22291;52.250;21.228;2023-04-01T23:46:30;99258.53;;;6.72;87.68
36254;BME280;22291;52.250;21.228;2023-04-01T23:49:01;99264.13;;;6.73;87.75
36254;BME280;22291;52.250;21.228;2023-04-01T23:51:37;99261.45;;;6.73;87.76
36254;BME280;22291;52.250;21.228;2023-04-01T23:54:24;99263.57;;;6.74;87.77
36254;BME280;22291;52.250;21.228;2023-04-01T23:57:04;99267.13;;;6.72;87.64
36254;BME280;22291;52.250;21.228;2023-04-01T23:59:36;99267.51;;;6.68;87.59
